Cromwell, Washington
Current Conditions -  °F | °C
As of 3:53 PM on Tuesday 25 Nov 2014 (Local Time) from KTIW Reporting Station
Light Rain Light Rain  
Wind Chill: 56°   Ceiling: 500
Heat Index: 56°   Visibility: 2mi
Dew Point: 55°   Wind: 14mph
Humidity: 97%   Direction: 200°SSW
Pressure: 30.2"   Gusts: NA
Location:  47.2986°N, 122.616°W
Report Text: KTIW 252353Z 20012KT 2SM -RA BR BKN005 BKN010 OVC013 13/13 A3020 RMK AO2 RAE2259B37 SLP227 P0000 60028 T01330128 10133 20094 53002
Loading
Personal Weather Stations






























Interactive Weather Map New forecast layout! Learn more

10-Day Weather Forecast

Advertisements
Track Severe Weather on mobile